Time;durP1;ratioP1;P1;durP2;ratioP2;P2;SDS_P1;SDS_P2;PMS_P1;PMS_P2;Temp;Humidity;BMP_temperature;BMP_pressure;BME280_temperature;BME280_humidity;BME280_pressure;Samples;Min_cycle;Max_cycle;Signal;HPM_P1;HPM_P2
2024/02/08 00:03:34;;;;;;;68.45;33.00;;;3.30;99.90;;;;;;20503765;28;20914;-42
2024/02/08 00:13:36;;;;;;;67.93;33.28;;;3.30;99.90;;;;;;20502563;28;20136;-45
2024/02/08 00:23:38;;;;;;;87.05;40.17;;;3.20;99.90;;;;;;20502820;28;21092;-45
2024/02/08 00:33:40;;;;;;;81.20;38.70;;;3.20;99.90;;;;;;20526381;28;20161;-43
2024/02/08 00:43:44;;;;;;;52.75;25.27;;;3.20;99.90;;;;;;20661035;28;20060;-42
2024/02/08 00:53:46;;;;;;;65.53;30.23;;;2.60;99.90;;;;;;20676332;28;21769;-43
2024/02/08 01:03:47;;;;;;;69.97;32.08;;;2.30;99.90;;;;;;20675036;28;20142;-43
2024/02/08 01:13:52;;;;;;;71.60;32.78;;;2.60;99.90;;;;;;20674855;28;20427;-41
2024/02/08 01:23:54;;;;;;;98.35;42.70;;;2.70;99.90;;;;;;20654688;28;20068;-43
2024/02/08 01:33:56;;;;;;;68.82;31.05;;;2.80;99.90;;;;;;20671284;28;20150;-45
2024/02/08 01:44:07;;;;;;;64.53;28.17;;;2.70;99.90;;;;;;20670725;28;20099;-43
2024/02/08 01:54:12;;;;;;;70.88;32.92;;;2.80;99.90;;;;;;20653121;28;20177;-43
2024/02/08 02:04:15;;;;;;;71.15;33.90;;;2.90;99.90;;;;;;20670125;28;20108;-42
2024/02/08 02:14:17;;;;;;;57.67;28.40;;;3.00;99.90;;;;;;20671990;28;20692;-42
2024/02/08 02:24:24;;;;;;;59.25;28.15;;;2.80;99.90;;;;;;20671004;28;20081;-42
2024/02/08 02:34:33;;;;;;;54.92;26.90;;;2.60;99.90;;;;;;20669405;28;21144;-45
2024/02/08 02:44:35;;;;;;;55.60;27.42;;;2.50;99.90;;;;;;20677218;28;20162;-42
2024/02/08 02:54:39;;;;;;;64.60;31.95;;;2.60;99.90;;;;;;20696313;28;20145;-42
2024/02/08 03:04:41;;;;;;;67.03;31.48;;;2.60;99.90;;;;;;20677666;28;20132;-42
2024/02/08 03:14:57;;;;;;;76.78;32.78;;;2.70;99.90;;;;;;20693790;28;20068;-41
2024/02/08 03:25:04;;;;;;;73.28;33.63;;;2.60;99.90;;;;;;20693869;28;20156;-44
2024/02/08 03:35:06;;;;;;;87.13;36.88;;;2.70;99.90;;;;;;20696584;28;20134;-43
2024/02/08 03:45:08;;;;;;;85.68;38.45;;;2.70;99.90;;;;;;20690450;28;20114;-45
2024/02/08 03:55:13;;;;;;;88.90;37.25;;;2.80;99.90;;;;;;20687528;28;20064;-43
2024/02/08 04:05:36;;;;;;;80.10;36.47;;;2.90;99.90;;;;;;20678934;28;20068;-42
2024/02/08 04:57:12;;;;;;;73.77;32.33;;;2.60;99.90;;;;;;20676107;28;20064;-44
2024/02/08 05:07:14;;;;;;;78.10;32.53;;;2.60;99.90;;;;;;20653991;28;20122;-45
2024/02/08 05:17:22;;;;;;;79.57;31.85;;;2.40;99.90;;;;;;20656519;28;20127;-44
2024/02/08 05:27:25;;;;;;;68.45;30.73;;;2.40;99.90;;;;;;20671365;28;20103;-44
2024/02/08 05:37:29;;;;;;;63.05;29.17;;;2.30;99.90;;;;;;20672495;28;21025;-43
2024/02/08 05:47:36;;;;;;;64.63;29.92;;;2.30;99.90;;;;;;20673905;28;20072;-43
2024/02/08 05:57:44;;;;;;;57.13;27.52;;;2.40;99.90;;;;;;20653951;28;20704;-43
2024/02/08 06:07:56;;;;;;;81.88;33.53;;;2.20;99.90;;;;;;20673381;28;20112;-43
2024/02/08 06:18:04;;;;;;;74.75;32.67;;;1.90;99.90;;;;;;20652258;28;20158;-45
2024/02/08 06:28:06;;;;;;;81.53;35.00;;;2.00;99.90;;;;;;20670367;28;20663;-42
2024/02/08 06:38:13;;;;;;;72.50;32.60;;;2.20;99.90;;;;;;20649830;28;20045;-45
2024/02/08 07:40:34;;;;;;;49.78;25.25;;;2.60;99.90;;;;;;20679693;28;20797;-45
2024/02/08 07:50:44;;;;;;;43.47;22.40;;;2.70;99.90;;;;;;20675310;28;20037;-43
2024/02/08 08:00:49;;;;;;;43.70;23.10;;;3.30;99.90;;;;;;20678863;28;20122;-44
2024/02/08 08:11:02;;;;;;;39.28;19.85;;;4.00;99.90;;;;;;20678916;28;20073;-44
2024/02/08 08:21:07;;;;;;;37.17;20.92;;;4.40;99.90;;;;;;20677668;28;20565;-44
2024/02/08 08:31:51;;;;;;;36.65;20.02;;;5.10;99.90;;;;;;20670946;28;20492;-46
2024/02/08 08:41:45;;;;;;;38.58;21.30;;;5.70;99.90;;;;;;20667920;28;20107;-44
2024/02/08 08:51:58;;;;;;;43.50;23.63;;;6.80;99.90;;;;;;20675383;28;20041;-44
2024/02/08 09:02:00;;;;;;;38.08;21.92;;;8.00;99.90;;;;;;20672233;28;20496;-45
2024/02/08 09:12:02;;;;;;;48.30;27.98;;;7.90;99.90;;;;;;20672071;28;20719;-46
2024/02/08 09:22:05;;;;;;;53.17;29.85;;;7.70;99.90;;;;;;20652287;28;20081;-44
2024/02/08 09:42:30;;;;;;;46.30;27.77;;;8.00;99.90;;;;;;20673502;28;20069;-43
2024/02/08 09:52:34;;;;;;;45.42;27.63;;;8.90;99.90;;;;;;20663405;28;20481;-43
2024/02/08 10:02:41;;;;;;;53.33;31.23;;;9.40;99.90;;;;;;20669485;28;20110;-43
2024/02/08 10:13:05;;;;;;;50.85;30.98;;;9.90;99.90;;;;;;20670461;28;20118;-43
2024/02/08 10:23:35;;;;;;;58.67;33.72;;;10.10;99.90;;;;;;20668515;28;20092;-42
2024/02/08 10:33:38;;;;;;;54.13;32.80;;;9.60;99.90;;;;;;20666019;28;20064;-45
2024/02/08 10:43:46;;;;;;;52.28;31.77;;;10.60;99.90;;;;;;20667411;28;20077;-43
2024/02/08 10:54:14;;;;;;;56.08;33.47;;;11.20;99.90;;;;;;20667558;28;21228;-46
2024/02/08 11:04:20;;;;;;;53.33;31.90;;;11.00;99.90;;;;;;20665831;28;20120;-43
2024/02/08 11:14:23;;;;;;;51.47;30.02;;;10.60;99.90;;;;;;20681899;28;20213;-42
2024/02/08 11:24:28;;;;;;;51.72;28.60;;;10.50;99.90;;;;;;20680089;28;20123;-42
2024/02/08 11:34:44;;;;;;;46.65;27.83;;;11.10;99.90;;;;;;20679988;28;20033;-42
2024/02/08 11:44:46;;;;;;;44.75;26.38;;;11.30;99.90;;;;;;20680416;28;20084;-45
2024/02/08 11:55:10;;;;;;;45.05;26.23;;;11.40;99.90;;;;;;20679650;28;20161;-44
2024/02/08 12:05:15;;;;;;;45.75;26.83;;;11.80;99.90;;;;;;20678706;28;20110;-41
2024/02/08 12:15:21;;;;;;;40.78;22.15;;;11.10;99.90;;;;;;20674549;28;20126;-43
2024/02/08 12:25:27;;;;;;;38.63;19.45;;;10.20;99.90;;;;;;20593951;28;20050;-42
2024/02/08 12:35:30;;;;;;;32.17;17.85;;;10.90;99.90;;;;;;20590810;28;20584;-42
2024/02/08 12:45:32;;;;;;;45.15;23.67;;;10.00;99.90;;;;;;20594679;28;20038;-43
2024/02/08 12:55:38;;;;;;;33.92;18.27;;;10.20;99.90;;;;;;20591624;28;20126;-45
2024/02/08 13:05:44;;;;;;;37.47;21.00;;;11.30;99.90;;;;;;20593086;28;21833;-41
2024/02/08 13:15:46;;;;;;;39.33;20.00;;;10.80;99.90;;;;;;20589249;28;20283;-44
2024/02/08 13:25:48;;;;;;;37.60;20.50;;;10.20;99.90;;;;;;20657355;28;20092;-42
2024/02/08 13:35:52;;;;;;;37.72;21.65;;;10.30;99.90;;;;;;20670626;28;20126;-43
2024/02/08 13:45:57;;;;;;;36.55;19.38;;;10.10;99.90;;;;;;20668636;28;20521;-42
2024/02/08 13:55:59;;;;;;;52.33;25.67;;;10.40;99.90;;;;;;20669269;28;20125;-41
2024/02/08 14:06:01;;;;;;;59.53;30.45;;;9.80;99.90;;;;;;20650922;28;20061;-42
2024/02/08 14:16:13;;;;;;;68.13;35.92;;;9.40;99.90;;;;;;20671131;28;20131;-42
2024/02/08 14:36:19;;;;;;;49.78;26.13;;;8.10;99.90;;;;;;20665222;28;20037;-40
2024/02/08 14:46:25;;;;;;;65.28;35.55;;;7.70;99.90;;;;;;20665808;28;20073;-47
2024/02/08 14:56:28;;;;;;;69.07;35.42;;;7.30;99.90;;;;;;20663754;28;21101;-42
2024/02/08 15:06:38;;;;;;;62.65;34.35;;;7.40;99.90;;;;;;20665231;28;20045;-41
2024/02/08 15:16:44;;;;;;;64.85;32.30;;;7.60;99.90;;;;;;20664903;28;20076;-43
2024/02/08 15:27:04;;;;;;;47.47;26.75;;;7.50;99.90;;;;;;20664900;28;20088;-42
2024/02/08 15:47:34;;;;;;;63.92;32.88;;;6.80;99.90;;;;;;20661426;28;20684;-45
2024/02/08 15:57:38;;;;;;;79.13;38.70;;;6.20;99.90;;;;;;20673389;28;20142;-41
2024/02/08 16:07:42;;;;;;;60.70;29.92;;;5.80;99.90;;;;;;20648887;28;21541;-42
2024/02/08 16:18:03;;;;;;;92.57;43.05;;;5.60;99.90;;;;;;20552730;28;20457;-42
2024/02/08 16:28:22;;;;;;;43.80;20.90;;;5.40;99.90;;;;;;20551416;28;20159;-44
2024/02/08 16:38:29;;;;;;;44.63;21.47;;;5.10;99.90;;;;;;20565918;28;20029;-43
2024/02/08 16:48:36;;;;;;;48.28;23.52;;;4.90;99.90;;;;;;20677246;28;20133;-45
2024/02/08 16:58:43;;;;;;;23.65;10.63;;;4.90;99.90;;;;;;20678839;28;20103;-42
2024/02/08 17:09:01;;;;;;;31.98;15.98;;;5.00;99.90;;;;;;20579956;28;20170;-42
2024/02/08 17:19:24;;;;;;;56.10;25.67;;;4.90;99.90;;;;;;20582864;28;20164;-42
2024/02/08 17:29:35;;;;;;;45.85;12.70;;;4.60;99.90;;;;;;20582127;28;20195;-42
2024/02/08 17:39:40;;;;;;;41.95;19.08;;;4.30;99.90;;;;;;20660351;28;20797;-42
2024/02/08 17:49:42;;;;;;;48.88;21.52;;;4.90;99.90;;;;;;20671559;28;20239;-43
2024/02/08 17:59:43;;;;;;;46.97;21.55;;;4.90;99.90;;;;;;20674445;28;20064;-41
2024/02/08 18:09:54;;;;;;;8.52;3.38;;;4.60;99.90;;;;;;20669072;28;20080;-41
2024/02/08 18:19:59;;;;;;;12.88;6.45;;;5.10;99.90;;;;;;20670096;28;20178;-44
2024/02/08 18:30:09;;;;;;;8.90;3.95;;;5.50;99.90;;;;;;20671056;28;20197;-43
2024/02/08 18:40:18;;;;;;;32.70;16.55;;;5.90;99.90;;;;;;20669933;28;20510;-42
2024/02/08 18:50:24;;;;;;;25.40;12.90;;;5.70;99.90;;;;;;20670479;28;20068;-42
2024/02/08 19:00:30;;;;;;;7.45;4.32;;;5.40;99.90;;;;;;20669051;28;21252;-42
2024/02/08 19:10:35;;;;;;;32.58;16.13;;;5.60;99.90;;;;;;20669647;28;20067;-44
2024/02/08 19:20:42;;;;;;;32.40;16.85;;;5.80;99.90;;;;;;20648955;28;21262;-42
2024/02/08 19:30:45;;;;;;;59.42;27.25;;;5.80;99.90;;;;;;20680087;28;21550;-43
2024/02/08 19:40:47;;;;;;;44.47;21.92;;;5.60;99.90;;;;;;20681941;28;21129;-43
2024/02/08 19:50:49;;;;;;;96.35;38.13;;;5.30;99.90;;;;;;20682339;28;20809;-44
2024/02/08 20:00:58;;;;;;;70.88;32.30;;;5.10;99.90;;;;;;20595723;28;20037;-42
2024/02/08 20:11:04;;;;;;;54.23;25.40;;;4.80;99.90;;;;;;20572808;28;21580;-42
2024/02/08 20:21:12;;;;;;;49.13;22.65;;;4.70;99.90;;;;;;20574369;28;20117;-44
2024/02/08 20:31:16;;;;;;;47.53;21.70;;;4.70;99.90;;;;;;20569979;28;20041;-43
2024/02/08 20:41:24;;;;;;;40.63;19.92;;;4.60;99.90;;;;;;20567852;28;20041;-44
2024/02/08 20:51:28;;;;;;;101.38;29.30;;;4.70;99.90;;;;;;20656716;28;20133;-44
2024/02/08 21:01:34;;;;;;;183.27;31.35;;;4.70;99.90;;;;;;20676434;28;20072;-48
2024/02/08 21:11:36;;;;;;;1093.60;71.47;;;4.50;99.90;;;;;;20672993;28;20079;-43
2024/02/08 21:21:38;;;;;;;255.95;31.65;;;4.30;99.90;;;;;;20675536;28;20127;-45
2024/02/08 21:31:45;;;;;;;237.45;32.53;;;4.10;99.90;;;;;;20660711;28;20092;-43
2024/02/08 21:41:50;;;;;;;1257.85;71.68;;;3.90;99.90;;;;;;20676165;28;20042;-43
2024/02/08 21:51:55;;;;;;;303.42;27.83;;;4.00;99.90;;;;;;20675024;28;20664;-46
2024/02/08 22:02:00;;;;;;;21.17;15.95;;;3.90;99.90;;;;;;20658448;28;20087;-43
2024/02/08 22:12:03;;;;;;;20.27;14.30;;;3.90;99.90;;;;;;20672714;28;20095;-44
2024/02/08 22:22:06;;;;;;;64.28;14.27;;;4.00;99.90;;;;;;20674263;28;20989;-43
2024/02/08 22:32:11;;;;;;;28.20;17.70;;;3.90;99.90;;;;;;20673789;28;20115;-44
2024/02/08 22:42:13;;;;;;;13.82;8.98;;;3.90;99.90;;;;;;20670658;28;20106;-48
2024/02/08 22:52:15;;;;;;;6.25;4.15;;;4.10;99.90;;;;;;20670393;28;20076;-44
2024/02/08 23:02:19;;;;;;;94.93;12.45;;;4.40;99.90;;;;;;20674424;28;21172;-44
2024/02/08 23:12:24;;;;;;;685.38;34.50;;;4.60;99.90;;;;;;20685433;28;20138;-44
2024/02/08 23:22:25;;;;;;;181.15;19.92;;;4.50;99.90;;;;;;20683984;28;20804;-44
2024/02/08 23:32:29;;;;;;;289.52;14.95;;;4.50;99.90;;;;;;20658793;28;20804;-47
2024/02/08 23:42:32;;;;;;;711.97;31.35;;;4.40;99.90;;;;;;20682590;28;20092;-47
2024/02/08 23:52:36;;;;;;;589.63;23.33;;;4.30;99.90;;;;;;20682044;28;20086;-43
